CRS72DV VHHH-ZGSZ
Flight info
| Callsign | CRS72DV |
|---|---|
| Flight time | 0h 39m |
| Altitude | 5900 |
| Route | BEKOL BEKOL1 |
| Aircraft | A139/L-SDGRY/S |
Departure
| Time | 2026-05-05 05:14 |
|---|---|
| Airport | Hong Kong International Airport (VHHH) |
Arrival
| Time | 2026-05-05 05:53 |
|---|---|
| Airport | Shenzhen Bao'an International Airport (ZGSZ) |
| Time | Latitude | Longitude | Altitude | Speed | Heading |
|---|---|---|---|---|---|
| 2026-05-05 05:04 | 22.29578 | 113.90477 | 31 ft | 0 kts | 341° |
| 2026-05-05 05:09 | 22.29580 | 113.90481 | 31 ft | 1 kts | 84° |
| 2026-05-05 05:09 | 22.29581 | 113.90500 | 31 ft | 3 kts | 79° |
| 2026-05-05 05:09 | 22.29581 | 113.90525 | 31 ft | 4 kts | 149° |
| 2026-05-05 05:10 | 22.29560 | 113.90543 | 31 ft | 3 kts | 75° |
| 2026-05-05 05:10 | 22.29571 | 113.90573 | 31 ft | 4 kts | 66° |
| 2026-05-05 05:10 | 22.29581 | 113.90599 | 31 ft | 3 kts | 71° |
| 2026-05-05 05:10 | 22.29586 | 113.90616 | 31 ft | 2 kts | 67° |
| 2026-05-05 05:11 | 22.29603 | 113.90642 | 31 ft | 0 kts | 342° |
| 2026-05-05 05:11 | 22.29623 | 113.90636 | 31 ft | 4 kts | 352° |
| 2026-05-05 05:11 | 22.29653 | 113.90631 | 31 ft | 4 kts | 345° |
| 2026-05-05 05:11 | 22.29685 | 113.90629 | 31 ft | 2 kts | 11° |
| 2026-05-05 05:12 | 22.29694 | 113.90605 | 31 ft | 7 kts | 238° |
| 2026-05-05 05:12 | 22.29674 | 113.90534 | 31 ft | 11 kts | 272° |
| 2026-05-05 05:12 | 22.29713 | 113.90475 | 31 ft | 10 kts | 26° |
| 2026-05-05 05:12 | 22.29766 | 113.90533 | 31 ft | 13 kts | 46° |
| 2026-05-05 05:13 | 22.29826 | 113.90651 | 118 ft | 24 kts | 84° |
| 2026-05-05 05:13 | 22.29890 | 113.90962 | 298 ft | 69 kts | 71° |
| 2026-05-05 05:13 | 22.30041 | 113.91389 | 308 ft | 80 kts | 63° |
| 2026-05-05 05:13 | 22.30298 | 113.91900 | 358 ft | 70 kts | 57° |
| 2026-05-05 05:14 | 22.30592 | 113.92342 | 485 ft | 56 kts | 50° |
| 2026-05-05 05:14 | 22.30784 | 113.92513 | 803 ft | 28 kts | 62° |
| 2026-05-05 05:14 | 22.30768 | 113.92726 | 1217 ft | 63 kts | 104° |
| 2026-05-05 05:14 | 22.30902 | 113.93246 | 1547 ft | 99 kts | 53° |
| 2026-05-05 05:15 | 22.31212 | 113.93395 | 2071 ft | 28 kts | 9° |
| 2026-05-05 05:15 | 22.31252 | 113.93153 | 1812 ft | 42 kts | 357° |
| 2026-05-05 05:15 | 22.31590 | 113.93301 | 1567 ft | 74 kts | 35° |
| 2026-05-05 05:15 | 22.31884 | 113.93706 | 1562 ft | 79 kts | 63° |
| 2026-05-05 05:16 | 22.32141 | 113.94311 | 1430 ft | 101 kts | 59° |
| 2026-05-05 05:16 | 22.32569 | 113.94908 | 1474 ft | 93 kts | 41° |
| 2026-05-05 05:16 | 22.32916 | 113.94978 | 1987 ft | 25 kts | 355° |
| 2026-05-05 05:16 | 22.33008 | 113.95074 | 1956 ft | 14 kts | 76° |
| 2026-05-05 05:17 | 22.33024 | 113.95209 | 1920 ft | 36 kts | 85° |
| 2026-05-05 05:17 | 22.33063 | 113.95622 | 1859 ft | 69 kts | 78° |
| 2026-05-05 05:17 | 22.33213 | 113.96197 | 1741 ft | 97 kts | 66° |
| 2026-05-05 05:17 | 22.33440 | 113.96939 | 1623 ft | 108 kts | 71° |
| 2026-05-05 05:18 | 22.33694 | 113.97729 | 1499 ft | 116 kts | 64° |
| 2026-05-05 05:18 | 22.34050 | 113.98520 | 1458 ft | 112 kts | 56° |
| 2026-05-05 05:18 | 22.34506 | 113.99152 | 1520 ft | 98 kts | 41° |
| 2026-05-05 05:18 | 22.35064 | 113.99528 | 1598 ft | 92 kts | 28° |
| 2026-05-05 05:19 | 22.35515 | 114.00050 | 1270 ft | 118 kts | 68° |
| 2026-05-05 05:19 | 22.35545 | 114.01028 | 767 ft | 135 kts | 89° |
| 2026-05-05 05:19 | 22.35547 | 114.01871 | 1107 ft | 91 kts | 77° |
| 2026-05-05 05:19 | 22.35698 | 114.02420 | 1343 ft | 64 kts | 69° |
| 2026-05-05 05:20 | 22.35831 | 114.02788 | 1518 ft | 43 kts | 67° |
| 2026-05-05 05:20 | 22.35871 | 114.02998 | 1765 ft | 22 kts | 90° |
| 2026-05-05 05:20 | 22.35505 | 114.03341 | 566 ft | 149 kts | 117° |
| 2026-05-05 05:20 | 22.35136 | 114.04277 | 392 ft | 129 kts | 98° |
| 2026-05-05 05:21 | 22.34823 | 114.05116 | 346 ft | 123 kts | 118° |
| 2026-05-05 05:21 | 22.34313 | 114.05762 | 515 ft | 107 kts | 121° |
| 2026-05-05 05:21 | 22.33731 | 114.06247 | 635 ft | 96 kts | 139° |
| 2026-05-05 05:21 | 22.33192 | 114.06549 | 709 ft | 96 kts | 142° |
| 2026-05-05 05:22 | 22.32589 | 114.07008 | 581 ft | 111 kts | 130° |
| 2026-05-05 05:22 | 22.31994 | 114.07582 | 448 ft | 116 kts | 126° |
| 2026-05-05 05:22 | 22.31416 | 114.08236 | 359 ft | 118 kts | 123° |
| 2026-05-05 05:22 | 22.30791 | 114.08828 | 300 ft | 122 kts | 135° |
| 2026-05-05 05:23 | 22.30146 | 114.09335 | 316 ft | 113 kts | 130° |
| 2026-05-05 05:23 | 22.29436 | 114.09775 | 210 ft | 116 kts | 146° |
| 2026-05-05 05:23 | 22.28704 | 114.10050 | 291 ft | 112 kts | 161° |
| 2026-05-05 05:23 | 22.27876 | 114.10108 | 637 ft | 129 kts | 175° |
| 2026-05-05 05:24 | 22.26951 | 114.10067 | 867 ft | 138 kts | 177° |
| 2026-05-05 05:24 | 22.25927 | 114.09968 | 982 ft | 159 kts | 180° |
| 2026-05-05 05:24 | 22.24796 | 114.09888 | 969 ft | 161 kts | 168° |
| 2026-05-05 05:24 | 22.23756 | 114.10017 | 890 ft | 139 kts | 158° |
| 2026-05-05 05:25 | 22.22879 | 114.10286 | 918 ft | 121 kts | 149° |
| 2026-05-05 05:25 | 22.22127 | 114.10670 | 888 ft | 112 kts | 134° |
| 2026-05-05 05:25 | 22.21761 | 114.11328 | 865 ft | 103 kts | 98° |
| 2026-05-05 05:25 | 22.21637 | 114.12100 | 775 ft | 103 kts | 87° |
| 2026-05-05 05:26 | 22.21707 | 114.12861 | 684 ft | 104 kts | 73° |
| 2026-05-05 05:26 | 22.21918 | 114.13608 | 602 ft | 108 kts | 63° |
| 2026-05-05 05:26 | 22.22047 | 114.14346 | 702 ft | 92 kts | 75° |
| 2026-05-05 05:26 | 22.22200 | 114.14978 | 812 ft | 81 kts | 69° |
| 2026-05-05 05:27 | 22.22371 | 114.15540 | 847 ft | 87 kts | 70° |
| 2026-05-05 05:27 | 22.22464 | 114.15828 | 866 ft | 89 kts | 67° |
| 2026-05-05 05:27 | 22.22967 | 114.17403 | 919 ft | 117 kts | 69° |
| 2026-05-05 05:28 | 22.23231 | 114.18323 | 992 ft | 138 kts | 74° |
| 2026-05-05 05:28 | 22.23537 | 114.19311 | 1133 ft | 140 kts | 68° |
| 2026-05-05 05:28 | 22.23846 | 114.20126 | 907 ft | 153 kts | 61° |
| 2026-05-05 05:28 | 22.24501 | 114.20986 | 619 ft | 143 kts | 48° |
| 2026-05-05 05:29 | 22.24577 | 114.21928 | 492 ft | 138 kts | 105° |
| 2026-05-05 05:29 | 22.24288 | 114.22855 | 567 ft | 122 kts | 103° |
| 2026-05-05 05:29 | 22.24058 | 114.23676 | 1152 ft | 109 kts | 102° |
| 2026-05-05 05:29 | 22.24146 | 114.24371 | 1272 ft | 89 kts | 67° |
| 2026-05-05 05:30 | 22.24442 | 114.25064 | 1081 ft | 112 kts | 60° |
| 2026-05-05 05:30 | 22.24892 | 114.25864 | 1004 ft | 135 kts | 58° |
| 2026-05-05 05:30 | 22.25400 | 114.26750 | 1015 ft | 142 kts | 57° |
| 2026-05-05 05:30 | 22.25989 | 114.27638 | 1041 ft | 147 kts | 52° |
| 2026-05-05 05:31 | 22.26624 | 114.28462 | 996 ft | 142 kts | 48° |
| 2026-05-05 05:31 | 22.27387 | 114.29210 | 850 ft | 153 kts | 41° |
| 2026-05-05 05:31 | 22.28271 | 114.29895 | 513 ft | 154 kts | 31° |
| 2026-05-05 05:31 | 22.29155 | 114.30426 | 908 ft | 141 kts | 32° |
| 2026-05-05 05:32 | 22.30055 | 114.30848 | 1091 ft | 144 kts | 19° |
| 2026-05-05 05:32 | 22.31067 | 114.30975 | 999 ft | 147 kts | 1° |
| 2026-05-05 05:32 | 22.32119 | 114.30878 | 771 ft | 160 kts | 356° |
| 2026-05-05 05:32 | 22.33202 | 114.30651 | 593 ft | 152 kts | 346° |
| 2026-05-05 05:33 | 22.34172 | 114.30312 | 602 ft | 138 kts | 340° |
| 2026-05-05 05:33 | 22.35052 | 114.30040 | 656 ft | 123 kts | 347° |
| 2026-05-05 05:33 | 22.35854 | 114.29853 | 731 ft | 114 kts | 348° |
| 2026-05-05 05:33 | 22.36273 | 114.29733 | 791 ft | 111 kts | 344° |
| 2026-05-05 05:34 | 22.36723 | 114.29531 | 943 ft | 100 kts | 333° |
| 2026-05-05 05:34 | 22.37392 | 114.29140 | 818 ft | 115 kts | 327° |
| 2026-05-05 05:34 | 22.38064 | 114.28753 | 642 ft | 122 kts | 345° |
| 2026-05-05 05:35 | 22.38826 | 114.28519 | 730 ft | 109 kts | 340° |
| 2026-05-05 05:35 | 22.39531 | 114.28161 | 745 ft | 105 kts | 333° |
| 2026-05-05 05:35 | 22.40164 | 114.27778 | 873 ft | 94 kts | 331° |
| 2026-05-05 05:35 | 22.40700 | 114.27393 | 1039 ft | 90 kts | 328° |
| 2026-05-05 05:36 | 22.41241 | 114.27010 | 1059 ft | 105 kts | 330° |
| 2026-05-05 05:36 | 22.41979 | 114.26499 | 852 ft | 137 kts | 329° |
| 2026-05-05 05:36 | 22.42642 | 114.25875 | 868 ft | 114 kts | 307° |
| 2026-05-05 05:36 | 22.42895 | 114.25153 | 773 ft | 102 kts | 265° |
| 2026-05-05 05:37 | 22.42870 | 114.24489 | 822 ft | 70 kts | 264° |
| 2026-05-05 05:37 | 22.42952 | 114.24052 | 580 ft | 60 kts | 268° |
| 2026-05-05 05:37 | 22.42998 | 114.23608 | 780 ft | 67 kts | 307° |
| 2026-05-05 05:37 | 22.43266 | 114.23052 | 1302 ft | 100 kts | 314° |
| 2026-05-05 05:38 | 22.43696 | 114.22416 | 1800 ft | 90 kts | 306° |
| 2026-05-05 05:38 | 22.44020 | 114.21842 | 1821 ft | 105 kts | 298° |
| 2026-05-05 05:38 | 22.44351 | 114.21055 | 1729 ft | 125 kts | 290° |
| 2026-05-05 05:38 | 22.44638 | 114.20096 | 1506 ft | 143 kts | 276° |
| 2026-05-05 05:39 | 22.44789 | 114.19085 | 1519 ft | 135 kts | 286° |
| 2026-05-05 05:39 | 22.45232 | 114.18188 | 1435 ft | 137 kts | 304° |
| 2026-05-05 05:39 | 22.45931 | 114.17443 | 1290 ft | 140 kts | 316° |
| 2026-05-05 05:39 | 22.46629 | 114.16693 | 1162 ft | 144 kts | 312° |
| 2026-05-05 05:40 | 22.47279 | 114.15900 | 1113 ft | 134 kts | 311° |
| 2026-05-05 05:40 | 22.48018 | 114.15327 | 1075 ft | 124 kts | 337° |
| 2026-05-05 05:40 | 22.48827 | 114.14971 | 1059 ft | 124 kts | 334° |
| 2026-05-05 05:40 | 22.49584 | 114.14496 | 1042 ft | 126 kts | 323° |
| 2026-05-05 05:41 | 22.50305 | 114.13879 | 846 ft | 137 kts | 323° |
| 2026-05-05 05:41 | 22.51106 | 114.13379 | 838 ft | 131 kts | 327° |
| 2026-05-05 05:41 | 22.51905 | 114.12839 | 1042 ft | 141 kts | 334° |
| 2026-05-05 05:41 | 22.52799 | 114.12363 | 1340 ft | 148 kts | 338° |
| 2026-05-05 05:42 | 22.53736 | 114.11860 | 1570 ft | 155 kts | 336° |
| 2026-05-05 05:42 | 22.54724 | 114.11276 | 1574 ft | 169 kts | 332° |
| 2026-05-05 05:42 | 22.55712 | 114.10568 | 1509 ft | 169 kts | 322° |
| 2026-05-05 05:42 | 22.56611 | 114.09829 | 1264 ft | 161 kts | 335° |
| 2026-05-05 05:43 | 22.57672 | 114.09769 | 980 ft | 154 kts | 0° |
| 2026-05-05 05:43 | 22.58701 | 114.09741 | 898 ft | 145 kts | 354° |
| 2026-05-05 05:43 | 22.59468 | 114.09628 | 874 ft | 138 kts | 348° |
| 2026-05-05 05:43 | 22.60399 | 114.09356 | 801 ft | 137 kts | 342° |
| 2026-05-05 05:44 | 22.61337 | 114.09131 | 710 ft | 136 kts | 346° |
| 2026-05-05 05:44 | 22.62241 | 114.08859 | 712 ft | 131 kts | 341° |
| 2026-05-05 05:44 | 22.63094 | 114.08597 | 705 ft | 124 kts | 1° |
| 2026-05-05 05:44 | 22.63839 | 114.08830 | 952 ft | 96 kts | 14° |
| 2026-05-05 05:45 | 22.64411 | 114.08354 | 852 ft | 124 kts | 294° |
| 2026-05-05 05:45 | 22.64696 | 114.07408 | 632 ft | 142 kts | 270° |
| 2026-05-05 05:45 | 22.64609 | 114.06290 | 511 ft | 160 kts | 263° |
| 2026-05-05 05:45 | 22.64488 | 114.05032 | 497 ft | 175 kts | 262° |
| 2026-05-05 05:46 | 22.64310 | 114.03783 | 468 ft | 158 kts | 253° |
| 2026-05-05 05:46 | 22.64040 | 114.02685 | 398 ft | 149 kts | 246° |
| 2026-05-05 05:46 | 22.63783 | 114.01720 | 900 ft | 133 kts | 265° |
| 2026-05-05 05:46 | 22.63692 | 114.00673 | 1035 ft | 137 kts | 261° |
| 2026-05-05 05:47 | 22.63563 | 113.99712 | 1137 ft | 126 kts | 257° |
| 2026-05-05 05:47 | 22.63435 | 113.98866 | 1403 ft | 102 kts | 250° |
| 2026-05-05 05:47 | 22.63275 | 113.98110 | 1413 ft | 113 kts | 249° |
| 2026-05-05 05:47 | 22.62984 | 113.97250 | 1255 ft | 127 kts | 239° |
| 2026-05-05 05:48 | 22.62721 | 113.96362 | 1266 ft | 119 kts | 259° |
| 2026-05-05 05:48 | 22.62612 | 113.95504 | 1652 ft | 122 kts | 264° |
| 2026-05-05 05:48 | 22.62583 | 113.94672 | 2243 ft | 119 kts | 271° |
| 2026-05-05 05:48 | 22.62606 | 113.93658 | 2328 ft | 152 kts | 269° |
| 2026-05-05 05:49 | 22.62602 | 113.92455 | 2273 ft | 167 kts | 266° |
| 2026-05-05 05:49 | 22.62526 | 113.91169 | 2188 ft | 172 kts | 261° |
| 2026-05-05 05:49 | 22.62352 | 113.89889 | 1879 ft | 172 kts | 256° |
| 2026-05-05 05:49 | 22.62218 | 113.88652 | 1619 ft | 170 kts | 265° |
| 2026-05-05 05:50 | 22.62260 | 113.87535 | 1227 ft | 173 kts | 267° |
| 2026-05-05 05:50 | 22.62291 | 113.85969 | 952 ft | 155 kts | 268° |
| 2026-05-05 05:50 | 22.62424 | 113.85017 | 799 ft | 153 kts | 279° |
| 2026-05-05 05:51 | 22.62565 | 113.83890 | 718 ft | 143 kts | 271° |
| 2026-05-05 05:51 | 22.62848 | 113.82865 | 465 ft | 141 kts | 292° |
| 2026-05-05 05:51 | 22.63322 | 113.82059 | 357 ft | 121 kts | 332° |
| 2026-05-05 05:52 | 22.64048 | 113.81684 | 336 ft | 111 kts | 322° |
| 2026-05-05 05:52 | 22.64303 | 113.80961 | 233 ft | 118 kts | 249° |
| 2026-05-05 05:52 | 22.63699 | 113.80471 | 232 ft | 103 kts | 201° |
| 2026-05-05 05:52 | 22.63237 | 113.80116 | 458 ft | 53 kts | 321° |
| 2026-05-05 05:53 | 22.63405 | 113.79961 | 282 ft | 62 kts | 23° |
| 2026-05-05 05:53 | 22.63744 | 113.80394 | 119 ft | 74 kts | 69° |
| 2026-05-05 05:53 | 22.63774 | 113.80699 | 176 ft | 26 kts | 261° |
| 2026-05-05 05:53 | 22.63736 | 113.80557 | 68 ft | 25 kts | 322° |
| 2026-05-05 05:54 | 22.63789 | 113.80485 | 5 ft | 0 kts | 355° |
| 2026-05-05 05:54 | 22.63803 | 113.80505 | 6 ft | 0 kts | 106° |
| 2026-05-05 05:54 | 22.63792 | 113.80515 | 5 ft | 8 kts | 127° |
| 2026-05-05 05:54 | 22.63752 | 113.80554 | 5 ft | 3 kts | 154° |
| 2026-05-05 05:55 | 22.63748 | 113.80557 | 5 ft | 0 kts | 157° |